Moore, Oklahoma
Current Conditions -  °F | °C
As of 2:50 AM on Monday 22 Dec 2014 (Local Time) from KOUN Reporting Station
Overcast Overcast  
Wind Chill: 41°   Ceiling: 1500
Heat Index: 46°   Visibility: 7mi
Dew Point: 46°   Wind: 10mph
Humidity: 100%   Direction: 150°SSE
Pressure: 29.58"   Gusts: NA
Location:  35.34°N, 97.48°W
Report Text: KOUN 220850Z AUTO 15009KT 7SM SCT008 OVC015 08/08 A2958 RMK AO2
Loading
Personal Weather Stations






























Interactive Weather Map New forecast layout! Learn more

10-Day Weather Forecast

Advertisements
Track Severe Weather on mobile